Time;durP1;ratioP1;P1;durP2;ratioP2;P2;SDS_P1;SDS_P2;PMS_P1;PMS_P2;Temp;Humidity;BMP_temperature;BMP_pressure;BME280_temperature;BME280_humidity;BME280_pressure;Samples;Min_cycle;Max_cycle;Signal;HPM_P1;HPM_P2
2023/10/16 00:01:48;;;;;;;1.70;1.60;;;;;;;-143.84;55.80;45100.47;5070928;28;20581;-61
2023/10/16 00:04:18;;;;;;;5.13;1.47;;;;;;;-143.84;56.41;45096.66;5071075;28;20441;-61
2023/10/16 00:06:49;;;;;;;2.33;1.47;;;;;;;-143.84;56.53;45096.66;5071149;28;20437;-61
2023/10/16 00:09:21;;;;;;;2.30;1.70;;;;;;;-143.84;56.62;45098.56;5071431;28;20591;-60
2023/10/16 00:11:48;;;;;;;1.40;1.30;;;;;;;-143.84;56.89;45089.06;5071258;28;20452;-61
2023/10/16 00:14:23;;;;;;;3.37;2.13;;;;;;;-143.84;57.59;45094.78;5071107;28;20444;-61
2023/10/16 00:16:50;;;;;;;5.63;1.13;;;;;;;-143.84;57.88;45060.50;5071369;28;20441;-61
2023/10/16 00:19:18;;;;;;;1.40;1.30;;;;;;;-143.84;58.44;45089.06;5087703;28;20435;-61
2023/10/16 00:21:46;;;;;;;1.70;1.50;;;;;;;-143.84;58.33;45108.09;5090978;28;20503;-61
2023/10/16 00:24:13;;;;;;;2.67;1.80;;;;;;;-143.84;58.16;45094.78;5091064;28;20443;-61
2023/10/16 00:26:48;;;;;;;2.00;1.77;;;;;;;-143.84;58.27;45098.56;5091184;28;20462;-61
2023/10/16 00:29:18;;;;;;;6.13;1.30;;;;;;;-143.84;58.55;45110.00;5091203;28;20479;-61
2023/10/16 00:31:51;;;;;;;1.87;1.57;;;;;;;-143.84;58.78;45098.56;5091411;28;20439;-61
2023/10/16 00:34:20;;;;;;;2.70;1.93;;;;;;;-143.84;59.55;45115.72;5091039;28;20930;-61
2023/10/16 00:36:48;;;;;;;1.80;1.70;;;;;;;-143.84;59.61;45096.66;5090900;28;20523;-61
2023/10/16 00:39:16;;;;;;;2.50;2.30;;;;;;;-143.84;59.98;45108.09;5091081;28;20432;-61
2023/10/16 00:41:44;;;;;;;2.37;1.90;;;;;;;-143.84;60.50;45096.66;5090812;28;20486;-61
2023/10/16 00:44:11;;;;;;;2.13;1.47;;;;;;;-143.84;61.32;45110.00;5090918;28;20470;-61
2023/10/16 00:46:39;;;;;;;1.20;1.10;;;;;;;-143.84;61.86;45110.00;5090856;28;20530;-61
2023/10/16 00:49:07;;;;;;;1.67;1.53;;;;;;;-143.84;62.17;45104.28;5090865;28;20454;-61
2023/10/16 00:51:38;;;;;;;1.23;1.13;;;;;;;-143.84;62.66;45104.28;5090583;28;20435;-61
2023/10/16 00:54:15;;;;;;;1.60;1.50;;;;;;;-143.84;63.10;45089.06;5090406;28;20424;-61
2023/10/16 00:56:43;;;;;;;1.70;1.60;;;;;;;-143.84;63.84;45106.19;5090493;28;20616;-61
2023/10/16 00:59:12;;;;;;;2.20;2.10;;;;;;;-143.84;64.18;45092.88;5090318;28;20954;-61
2023/10/16 01:01:43;;;;;;;3.67;2.33;;;;;;;-143.84;64.92;45119.53;5090509;28;20511;-61
2023/10/16 01:04:11;;;;;;;3.40;2.67;;;;;;;-143.84;65.20;45085.25;5090565;28;20440;-61
2023/10/16 01:06:41;;;;;;;1.80;1.70;;;;;;;-143.84;65.55;45110.00;5090466;28;20448;-61
2023/10/16 01:09:09;;;;;;;1.77;1.63;;;;;;;-143.84;66.00;45090.97;5090548;28;20519;-61
2023/10/16 01:11:38;;;;;;;1.37;1.27;;;;;;;-143.84;66.23;45083.34;5090202;28;20436;-61
2023/10/16 01:14:06;;;;;;;2.73;1.70;;;;;;;-143.84;66.35;45098.56;5090406;28;20435;-61
2023/10/16 01:16:33;;;;;;;1.50;1.30;;;;;;;-143.84;66.81;45150.00;5090536;28;20428;-61
2023/10/16 01:19:01;;;;;;;1.43;1.33;;;;;;;-143.84;66.85;45106.19;5090141;28;20508;-61
2023/10/16 01:21:31;;;;;;;2.50;1.60;;;;;;;-143.84;66.94;45121.44;5089219;28;20484;-61
2023/10/16 01:24:03;;;;;;;1.63;1.53;;;;;;;-143.84;67.17;45138.56;5090155;28;20555;-61
2023/10/16 01:26:30;;;;;;;4.30;1.27;;;;;;;-143.84;67.50;45205.22;5089625;28;20447;-61
2023/10/16 01:28:57;;;;;;;2.17;1.97;;;;;;;-143.84;67.47;45130.94;5089674;28;20482;-61
2023/10/16 01:31:25;;;;;;;2.03;1.27;;;;;;;-143.84;67.80;45111.91;5089714;28;20436;-61
2023/10/16 01:33:54;;;;;;;2.83;1.13;;;;;;;-143.84;67.80;45127.13;5089606;28;20464;-61
2023/10/16 01:36:23;;;;;;;2.57;1.90;;;;;;;-143.84;67.95;45110.00;5089639;28;20534;-61
2023/10/16 01:38:50;;;;;;;3.17;1.50;;;;;;;-143.84;67.99;45106.19;5090049;28;21040;-61
2023/10/16 01:41:19;;;;;;;3.77;2.13;;;;;;;-143.84;68.26;45100.47;5090102;28;20919;-61
2023/10/16 01:43:46;;;;;;;2.57;1.73;;;;;;;-143.84;68.33;45111.91;5089977;28;20485;-61
2023/10/16 01:46:14;;;;;;;2.77;1.37;;;;;;;-143.84;68.16;45094.78;5089753;28;20444;-61
2023/10/16 01:48:44;;;;;;;1.40;1.03;;;;;;;-143.84;67.66;45127.13;5089833;28;20439;-61
2023/10/16 01:51:13;;;;;;;2.57;2.00;;;;;;;-143.84;67.29;45089.06;5090038;28;20444;-61
2023/10/16 01:53:40;;;;;;;1.57;1.30;;;;;;;-143.84;66.57;45090.97;5089345;28;20443;-61
2023/10/16 01:56:13;;;;;;;1.27;1.17;;;;;;;-143.84;66.11;45111.91;5089675;28;20477;-61
2023/10/16 01:58:43;;;;;;;1.40;1.30;;;;;;;-143.84;65.59;45111.91;5089812;28;20452;-61
2023/10/16 02:01:11;;;;;;;1.13;0.67;;;;;;;-143.84;64.48;45180.47;5089882;28;20572;-61
2023/10/16 02:03:38;;;;;;;1.37;0.97;;;;;;;-143.84;64.23;45100.47;5089911;28;20443;-61
2023/10/16 02:06:06;;;;;;;1.53;0.87;;;;;;;-143.84;63.88;45119.53;5090092;28;20505;-61
2023/10/16 02:08:33;;;;;;;1.00;0.50;;;;;;;-143.84;64.02;45117.63;5090011;28;20432;-61
2023/10/16 02:11:02;;;;;;;0.80;0.50;;;;;;;-143.84;63.77;45110.00;5089720;28;20994;-61
2023/10/16 02:13:30;;;;;;;0.80;0.40;;;;;;;-143.84;63.90;45100.47;5089687;28;20779;-61
2023/10/16 02:15:59;;;;;;;1.37;1.27;;;;;;;-143.84;63.65;45098.56;5089790;28;20440;-61
2023/10/16 02:18:27;;;;;;;1.67;1.40;;;;;;;-143.84;63.98;45104.28;5089921;28;20472;-61
2023/10/16 02:20:54;;;;;;;1.00;0.70;;;;;;;-143.84;63.77;45119.53;5089451;28;20452;-61
2023/10/16 02:23:21;;;;;;;2.20;1.00;;;;;;;-143.84;64.11;45125.22;5089460;28;20900;-61
2023/10/16 02:25:48;;;;;;;0.90;0.60;;;;;;;-143.84;64.37;45106.19;5089539;28;20446;-61
2023/10/16 02:28:19;;;;;;;1.17;1.07;;;;;;;-143.84;64.14;45127.13;5089872;28;20501;-61
2023/10/16 02:30:49;;;;;;;1.77;0.87;;;;;;;-143.84;64.37;45092.88;5089442;28;20447;-61
2023/10/16 02:33:23;;;;;;;1.00;0.90;;;;;;;-143.84;64.38;45142.38;5089643;28;20439;-61
2023/10/16 02:35:50;;;;;;;0.80;0.40;;;;;;;-143.84;64.67;45121.44;5089473;28;20509;-61
2023/10/16 02:38:27;;;;;;;1.00;0.73;;;;;;;-143.84;65.04;45130.94;5089383;28;20428;-61
2023/10/16 02:41:00;;;;;;;1.03;0.93;;;;;;;-143.84;64.56;45176.66;5089525;28;20762;-61
2023/10/16 02:43:27;;;;;;;0.90;0.70;;;;;;;-143.84;64.44;45121.44;5089346;28;20518;-61
2023/10/16 02:45:55;;;;;;;1.47;0.53;;;;;;;-143.84;64.59;45119.53;5089421;28;20439;-60
2023/10/16 02:48:24;;;;;;;0.90;0.60;;;;;;;-143.84;65.34;45115.72;5089268;28;20442;-61
2023/10/16 02:50:54;;;;;;;0.80;0.40;;;;;;;-143.84;65.74;45110.00;5089357;28;20447;-61
2023/10/16 02:53:22;;;;;;;1.90;0.93;;;;;;;-143.84;66.27;45113.81;5089189;28;20875;-61
2023/10/16 02:56:03;;;;;;;0.80;0.40;;;;;;;-143.84;66.67;45125.22;5075788;28;20486;-63
2023/10/16 02:58:30;;;;;;;0.80;0.40;;;;;;;-143.84;67.70;45132.84;5069257;28;20936;-63
2023/10/16 03:00:59;;;;;;;0.80;0.50;;;;;;;-143.84;67.21;45113.81;5071870;28;20450;-62
2023/10/16 03:03:28;;;;;;;0.80;0.40;;;;;;;-143.84;67.76;45132.84;5072440;28;20482;-62
2023/10/16 03:05:56;;;;;;;0.80;0.40;;;;;;;-143.84;68.32;45115.72;5072488;28;20441;-62
2023/10/16 03:08:29;;;;;;;0.80;0.50;;;;;;;-143.84;68.79;45121.44;5072427;28;20451;-60
2023/10/16 03:10:57;;;;;;;0.80;0.57;;;;;;;-143.84;69.18;45136.66;5072747;28;20435;-60
2023/10/16 03:13:25;;;;;;;0.80;0.40;;;;;;;-143.84;69.65;45132.84;5072423;28;20516;-60
2023/10/16 03:15:59;;;;;;;0.80;0.40;;;;;;;-143.84;69.97;45140.47;5071505;28;20520;-60
2023/10/16 03:18:29;;;;;;;0.80;0.47;;;;;;;-143.84;70.26;45130.94;5072488;28;20525;-61
2023/10/16 03:21:26;;;;;;;0.80;0.40;;;;;;;-143.84;71.17;45134.75;5075733;28;20465;-61
2023/10/16 03:23:53;;;;;;;0.80;0.50;;;;;;;-143.84;71.74;45094.78;5072034;28;20456;-61
2023/10/16 03:26:25;;;;;;;0.80;0.40;;;;;;;-143.84;72.91;45150.00;5087056;28;20455;-61
2023/10/16 03:28:53;;;;;;;0.80;0.40;;;;;;;-143.84;73.56;45136.66;5092034;28;20437;-62
2023/10/16 03:31:20;;;;;;;0.80;0.50;;;;;;;-143.84;74.07;45136.66;5092120;28;20436;-62
2023/10/16 03:33:49;;;;;;;0.80;0.40;;;;;;;-143.84;74.69;45125.22;5092079;28;20449;-63
2023/10/16 03:36:16;;;;;;;0.80;0.40;;;;;;;-143.84;75.11;45150.00;5092291;28;20456;-62
2023/10/16 03:38:43;;;;;;;0.80;0.50;;;;;;;-143.84;74.90;45146.19;5092315;28;21055;-62
2023/10/16 03:41:19;;;;;;;0.80;0.50;;;;;;;-143.84;74.73;45150.00;5092363;28;20514;-63
2023/10/16 03:43:47;;;;;;;1.00;0.60;;;;;;;-143.84;75.04;45157.59;5091549;28;20566;-61
2023/10/16 03:46:14;;;;;;;4.50;0.77;;;;;;;-143.84;75.78;45144.28;5091454;28;20451;-64
2023/10/16 03:48:44;;;;;;;0.80;0.50;;;;;;;-143.84;76.81;45151.91;5090637;28;20455;-64
2023/10/16 03:51:16;;;;;;;0.80;0.50;;;;;;;-143.84;77.62;45157.59;5089890;28;20504;-64
2023/10/16 03:53:44;;;;;;;0.80;0.50;;;;;;;-143.84;78.38;45140.47;5090532;28;20452;-64
2023/10/16 03:56:13;;;;;;;0.80;0.50;;;;;;;-143.84;79.21;45146.19;5088215;28;21004;-64
2023/10/16 03:58:42;;;;;;;0.90;0.70;;;;;;;-143.84;80.27;45146.19;5071737;28;20444;-64
2023/10/16 04:01:10;;;;;;;1.00;0.60;;;;;;;-143.84;81.58;45129.03;5089276;28;20467;-64
2023/10/16 04:03:47;;;;;;;0.80;0.40;;;;;;;-143.84;82.43;45146.19;5089787;28;20496;-64
2023/10/16 04:06:19;;;;;;;0.80;0.50;;;;;;;-143.84;83.04;45163.31;5089913;28;20505;-64
2023/10/16 04:08:46;;;;;;;0.80;0.60;;;;;;;-143.84;83.39;45165.22;5090103;28;21178;-64
2023/10/16 04:11:13;;;;;;;0.80;0.40;;;;;;;-143.84;83.93;45151.91;5089215;28;20430;-64
2023/10/16 04:13:47;;;;;;;0.90;0.50;;;;;;;-143.84;84.09;45144.28;5090055;28;20498;-64
2023/10/16 04:16:30;;;;;;;0.90;0.60;;;;;;;-143.84;84.57;45144.28;5090891;28;20483;-64
2023/10/16 04:19:09;;;;;;;1.00;0.80;;;;;;;-143.84;84.60;45155.69;5091609;28;21150;-64
2023/10/16 04:21:43;;;;;;;0.80;0.40;;;;;;;-143.84;84.89;45159.50;5091146;28;20483;-64
2023/10/16 04:24:30;;;;;;;1.00;0.53;;;;;;;-143.84;85.08;45170.94;5091319;28;20442;-64
2023/10/16 04:27:29;;;;;;;0.80;0.40;;;;;;;-143.84;85.41;45151.91;5091116;28;20543;-64
2023/10/16 04:29:49;;;;;;;0.80;0.50;;;;;;;-143.84;85.07;45161.41;5090603;28;20457;-64
2023/10/16 04:32:40;;;;;;;0.80;0.50;;;;;;;-143.84;85.06;45159.50;5090781;28;20444;-64
2023/10/16 04:35:29;;;;;;;4.00;0.83;;;;;;;-143.84;85.23;45163.31;5089286;28;20526;-64
2023/10/16 04:38:26;;;;;;;0.90;0.47;;;;;;;-143.84;86.61;45157.59;5091198;28;20887;-63
2023/10/16 04:43:49;;;;;;;0.90;0.50;;;;;;;-143.84;89.51;45159.50;5091033;28;20620;-64
2023/10/16 04:46:20;;;;;;;0.80;0.40;;;;;;;-143.84;89.36;45146.19;5091171;28;20473;-64
2023/10/16 04:48:51;;;;;;;0.80;0.60;;;;;;;-143.84;89.13;45169.03;5090659;28;20476;-64
2023/10/16 04:51:22;;;;;;;0.80;0.40;;;;;;;-143.84;88.48;45138.56;5090828;28;21159;-64
2023/10/16 04:53:59;;;;;;;1.00;0.53;;;;;;;-143.84;87.79;45174.75;5090940;28;20538;-64
2023/10/16 04:59:37;;;;;;;0.90;0.57;;;;;;;-143.84;86.25;45148.09;5091017;28;20422;-58
2023/10/16 05:02:16;;;;;;;0.80;0.40;;;;;;;-143.84;85.83;45150.00;5090591;28;20550;-58
2023/10/16 05:04:59;;;;;;;1.03;0.93;;;;;;;-143.84;85.64;45167.13;5090623;28;20487;-58
2023/10/16 05:07:38;;;;;;;0.80;0.40;;;;;;;-143.84;85.42;45148.09;5090568;28;20475;-58
2023/10/16 05:10:51;;;;;;;1.10;0.87;;;;;;;-143.84;84.52;45132.84;5090609;28;20444;-58
2023/10/16 05:13:37;;;;;;;0.90;0.80;;;;;;;-143.84;84.10;45150.00;5090473;28;20437;-58
2023/10/16 05:19:03;;;;;;;0.80;0.50;;;;;;;-143.84;83.08;45150.00;5079433;28;20440;-58
2023/10/16 06:14:11;;;;;;;0.97;0.87;;;;;;;-143.84;80.66;45132.84;5089713;28;20442;-58
2023/10/16 06:16:40;;;;;;;0.97;0.60;;;;;;;-143.84;80.83;45155.69;5089653;28;20441;-58
2023/10/16 06:19:14;;;;;;;1.00;0.90;;;;;;;-143.84;80.72;45140.47;5089244;28;20497;-58
2023/10/16 06:21:46;;;;;;;0.80;0.40;;;;;;;-143.84;80.35;45170.94;5089223;28;21018;-58
2023/10/16 06:24:28;;;;;;;0.80;0.40;;;;;;;-143.84;80.68;45169.03;5089406;28;20483;-63
2023/10/16 06:26:56;;;;;;;0.80;0.40;;;;;;;-143.84;80.93;45157.59;5089667;28;20518;-63
2023/10/16 06:29:34;;;;;;;0.80;0.40;;;;;;;-143.84;80.96;45169.03;5089777;28;20448;-63
2023/10/16 06:32:07;;;;;;;0.80;0.40;;;;;;;-143.84;80.92;45167.13;5089505;28;20446;-63
2023/10/16 06:34:35;;;;;;;1.00;0.70;;;;;;;-143.84;81.13;45174.75;5092579;28;20471;-63
2023/10/16 06:37:05;;;;;;;0.80;0.40;;;;;;;-143.84;80.67;45176.66;5093455;28;20469;-63
2023/10/16 06:39:35;;;;;;;0.80;0.40;;;;;;;-143.84;81.20;45167.13;5093392;28;20464;-63
2023/10/16 06:42:03;;;;;;;0.80;0.50;;;;;;;-143.84;82.07;45169.03;5093632;28;20462;-63
2023/10/16 06:44:34;;;;;;;0.80;0.50;;;;;;;-143.84;83.45;45159.50;5093120;28;20476;-63
2023/10/16 06:47:02;;;;;;;0.80;0.40;;;;;;;-143.84;84.15;45148.09;5093320;28;20453;-63
2023/10/16 06:49:35;;;;;;;0.80;0.47;;;;;;;-143.84;84.31;45155.69;5093228;28;20455;-63
2023/10/16 06:52:04;;;;;;;0.80;0.40;;;;;;;-143.84;84.71;45159.50;5093238;28;20442;-63
2023/10/16 06:54:32;;;;;;;0.80;0.40;;;;;;;-143.84;83.87;45180.47;5093040;28;20432;-63
2023/10/16 06:57:04;;;;;;;0.80;0.40;;;;;;;-143.84;83.58;45176.66;5092966;28;20437;-63
2023/10/16 06:59:32;;;;;;;0.80;0.50;;;;;;;-143.84;83.21;45151.91;5092982;28;20441;-63
2023/10/16 07:02:00;;;;;;;0.80;0.40;;;;;;;-143.84;83.09;45161.41;5092748;28;20452;-63
2023/10/16 07:04:31;;;;;;;1.00;0.50;;;;;;;-143.84;82.88;45146.19;5092772;28;20474;-63
2023/10/16 07:06:59;;;;;;;0.80;0.50;;;;;;;-143.84;81.79;45151.91;5092897;28;20521;-63
2023/10/16 07:09:37;;;;;;;0.80;0.40;;;;;;;-143.84;81.10;45150.00;5092713;28;20500;-63
2023/10/16 07:12:05;;;;;;;0.80;0.40;;;;;;;-143.84;81.20;45140.47;5092863;28;20436;-63
2023/10/16 07:14:33;;;;;;;0.80;0.40;;;;;;;-143.84;80.55;45159.50;5092537;28;20454;-63
2023/10/16 07:17:00;;;;;;;0.87;0.50;;;;;;;-143.84;80.16;45153.81;5092587;28;21129;-63
2023/10/16 07:19:28;;;;;;;0.80;0.40;;;;;;;-143.84;79.95;45188.06;5092382;28;20464;-63
2023/10/16 07:21:56;;;;;;;0.80;0.40;;;;;;;-143.84;79.53;45197.59;5092416;28;21007;-63
2023/10/16 07:24:23;;;;;;;0.80;0.47;;;;;;;-143.84;79.56;45169.03;5092310;28;20476;-63
2023/10/16 07:26:50;;;;;;;0.80;0.40;;;;;;;-143.84;79.62;45176.66;5092209;28;20437;-63
2023/10/16 07:29:21;;;;;;;0.80;0.40;;;;;;;-143.84;79.65;45157.59;5092146;28;20980;-63
2023/10/16 07:31:49;;;;;;;0.80;0.40;;;;;;;-143.84;79.62;45161.41;5092478;28;20443;-63
2023/10/16 07:34:16;;;;;;;0.80;0.40;;;;;;;-143.84;80.27;45153.81;5092480;28;20438;-63
2023/10/16 07:36:46;;;;;;;0.80;0.40;;;;;;;-143.84;80.92;45159.50;5092422;28;20443;-63
2023/10/16 07:39:13;;;;;;;0.80;0.40;;;;;;;-143.84;82.07;45174.75;5092228;28;20443;-63
2023/10/16 07:41:43;;;;;;;0.80;0.40;;;;;;;-143.84;83.85;45180.47;5092274;28;20485;-63
2023/10/16 07:44:10;;;;;;;0.80;0.40;;;;;;;-143.84;84.95;45180.47;5091679;28;20489;-63
2023/10/16 07:46:38;;;;;;;0.80;0.40;;;;;;;-143.84;85.37;45157.59;5091465;28;20437;-63
2023/10/16 07:49:12;;;;;;;0.87;0.47;;;;;;;-143.84;85.98;45165.22;5092237;28;20440;-63
2023/10/16 07:51:45;;;;;;;0.80;0.50;;;;;;;-143.84;85.99;45186.16;5091973;28;20443;-63
2023/10/16 07:54:13;;;;;;;0.80;0.40;;;;;;;-143.84;86.03;45150.00;5092172;28;20567;-63
2023/10/16 08:00:13;;;;;;;0.80;0.50;;;;;;;-143.84;86.05;45170.94;5091939;28;20464;-63
2023/10/16 08:02:44;;;;;;;0.80;0.40;;;;;;;-143.84;86.34;45170.94;5091759;28;20444;-63
2023/10/16 08:05:15;;;;;;;0.80;0.40;;;;;;;-143.84;86.17;45195.69;5091844;28;20443;-63
2023/10/16 08:07:47;;;;;;;0.80;0.40;;;;;;;-143.84;85.66;45235.69;5091607;28;20440;-63
2023/10/16 08:10:41;;;;;;;0.80;0.40;;;;;;;-143.84;85.50;45188.06;5091820;28;20437;-63
2023/10/16 08:13:12;;;;;;;0.80;0.40;;;;;;;-143.84;85.54;45189.97;5091501;28;20586;-63
2023/10/16 08:15:44;;;;;;;0.80;0.40;;;;;;;-143.84;85.51;45195.69;5091440;28;20741;-63
2023/10/16 08:18:13;;;;;;;0.80;0.40;;;;;;;-143.84;84.84;45207.13;5091663;28;20436;-63
2023/10/16 08:21:00;;;;;;;0.80;0.50;;;;;;;-143.84;84.40;45191.88;5091586;28;20522;-63
2023/10/16 08:23:34;;;;;;;0.80;0.40;;;;;;;-143.84;83.86;45188.06;5091331;28;21005;-63
2023/10/16 08:26:14;;;;;;;0.80;0.50;;;;;;;-143.84;82.33;45189.97;5091340;28;20501;-63
2023/10/16 08:28:45;;;;;;;0.80;0.40;;;;;;;-143.84;81.56;45176.66;5091287;28;20529;-63
2023/10/16 08:31:23;;;;;;;0.80;0.47;;;;;;;-143.84;81.27;45169.03;5091362;28;20452;-63
2023/10/16 08:33:51;;;;;;;0.80;0.40;;;;;;;-143.84;81.60;45151.91;5091097;28;20440;-63
2023/10/16 08:36:19;;;;;;;0.80;0.50;;;;;;;-143.84;81.01;45176.66;5091154;28;20818;-63
2023/10/16 08:38:52;;;;;;;0.80;0.50;;;;;;;-143.84;80.32;45188.06;5091286;28;20834;-63
2023/10/16 08:41:30;;;;;;;0.80;0.50;;;;;;;-143.84;79.58;45174.75;5090847;28;20933;-63
2023/10/16 08:44:05;;;;;;;0.80;0.40;;;;;;;-143.84;79.55;45161.41;5090991;28;20486;-63
2023/10/16 08:46:34;;;;;;;0.80;0.40;;;;;;;-143.84;79.42;45176.66;5091042;28;20510;-63
2023/10/16 08:49:02;;;;;;;0.93;0.83;;;;;;;-143.84;79.51;45174.75;5090782;28;20507;-62
2023/10/16 08:51:30;;;;;;;0.90;0.50;;;;;;;-143.84;79.59;45188.06;5090371;28;20451;-63
2023/10/16 08:54:04;;;;;;;0.80;0.40;;;;;;;-143.84;79.00;45180.47;5090548;28;20439;-63
2023/10/16 08:56:34;;;;;;;0.80;0.40;;;;;;;-143.84;78.93;45159.50;5090567;28;21242;-63
2023/10/16 08:59:04;;;;;;;0.80;0.50;;;;;;;-143.84;78.37;45165.22;5090775;28;20440;-63
2023/10/16 09:01:32;;;;;;;0.80;0.50;;;;;;;-143.84;77.88;45163.31;5090701;28;20451;-63
2023/10/16 09:04:05;;;;;;;0.80;0.50;;;;;;;-143.84;77.54;45144.28;5090616;28;20491;-63
2023/10/16 09:06:36;;;;;;;0.80;0.50;;;;;;;-143.84;77.08;45170.94;5090943;28;20436;-63
2023/10/16 09:09:11;;;;;;;0.80;0.40;;;;;;;-143.84;76.04;45174.75;5090852;28;20911;-63
2023/10/16 09:11:40;;;;;;;0.80;0.40;;;;;;;-143.84;75.95;45197.59;5090547;28;20452;-63
2023/10/16 09:14:08;;;;;;;0.80;0.40;;;;;;;-143.84;74.84;45169.03;5090377;28;20580;-63
2023/10/16 09:16:36;;;;;;;0.90;0.60;;;;;;;-143.84;74.44;45165.22;5090714;28;20473;-63
2023/10/16 09:19:07;;;;;;;0.80;0.50;;;;;;;-143.84;73.10;45153.81;5090290;28;20501;-63
2023/10/16 09:21:38;;;;;;;0.90;0.60;;;;;;;-143.84;72.71;45237.59;5090121;28;20479;-62
2023/10/16 09:24:07;;;;;;;0.80;0.53;;;;;;;-143.84;72.62;45165.22;5090350;28;20983;-63
2023/10/16 09:26:38;;;;;;;0.80;0.50;;;;;;;-143.84;71.68;45163.31;5090377;28;20440;-63
2023/10/16 09:29:14;;;;;;;1.00;0.70;;;;;;;-143.84;71.15;45178.56;5090413;28;20489;-63
2023/10/16 09:31:44;;;;;;;0.80;0.50;;;;;;;-143.84;70.03;45157.59;5090868;28;20481;-61
2023/10/16 09:34:17;;;;;;;0.80;0.50;;;;;;;-143.84;70.03;45161.41;5091024;28;20438;-61
2023/10/16 09:36:48;;;;;;;0.80;0.40;;;;;;;-143.84;70.53;45140.47;5090550;28;20520;-63
2023/10/16 09:39:19;;;;;;;0.80;0.40;;;;;;;-143.84;69.92;45165.22;5090255;28;20771;-63
2023/10/16 09:41:50;;;;;;;0.80;0.53;;;;;;;-143.84;69.32;45146.19;5090339;28;20809;-63
2023/10/16 09:44:23;;;;;;;0.80;0.47;;;;;;;-143.84;67.49;45153.81;5090126;28;21028;-63
2023/10/16 09:46:54;;;;;;;0.80;0.40;;;;;;;-143.84;67.83;45151.91;5090097;28;20460;-63
2023/10/16 09:49:23;;;;;;;0.80;0.40;;;;;;;-143.84;67.69;45155.69;5090609;28;20443;-58
2023/10/16 09:51:57;;;;;;;0.80;0.40;;;;;;;-143.84;65.77;45148.09;5090041;28;20447;-58
2023/10/16 09:54:27;;;;;;;0.90;0.50;;;;;;;-143.84;62.94;45167.13;5090067;28;20452;-58
2023/10/16 09:56:59;;;;;;;0.80;0.40;;;;;;;-143.84;60.55;45132.84;5090022;28;20446;-58
2023/10/16 09:59:33;;;;;;;0.80;0.53;;;;;;;-143.84;56.23;45155.69;5089949;28;20998;-58
2023/10/16 10:02:05;;;;;;;0.80;0.50;;;;;;;-143.84;53.48;45150.00;5090042;28;20479;-58
2023/10/16 10:04:35;;;;;;;0.80;0.40;;;;;;;-143.84;52.33;45144.28;5089798;28;20480;-58
2023/10/16 10:07:13;;;;;;;0.80;0.50;;;;;;;-143.84;49.79;45138.56;5089920;28;20951;-58
2023/10/16 10:09:46;;;;;;;0.90;0.57;;;;;;;-143.84;45.75;45129.03;5093692;28;20441;-58
2023/10/16 10:12:37;;;;;;;0.80;0.40;;;;;;;-143.84;45.33;45129.03;5093960;28;20465;-58
2023/10/16 10:15:16;;;;;;;0.80;0.40;;;;;;;-143.84;44.76;45134.75;5093914;28;20450;-58
2023/10/16 10:17:46;;;;;;;0.80;0.50;;;;;;;-143.84;43.47;45130.94;5093904;28;20445;-59
2023/10/16 10:20:23;;;;;;;0.80;0.40;;;;;;;-143.84;44.35;45129.03;5093794;28;20928;-58
2023/10/16 10:22:57;;;;;;;0.80;0.50;;;;;;;-143.84;43.60;45123.34;5093371;28;20482;-58
2023/10/16 10:25:37;;;;;;;0.80;0.50;;;;;;;-143.84;43.82;45132.84;5094113;28;20551;-58
2023/10/16 10:28:10;;;;;;;0.80;0.50;;;;;;;-143.84;44.23;45096.66;5093904;28;20476;-58
2023/10/16 10:30:44;;;;;;;0.80;0.40;;;;;;;-143.84;43.96;45115.72;5093610;28;20439;-58
2023/10/16 10:33:12;;;;;;;0.80;0.40;;;;;;;-143.84;44.13;45117.63;5093586;28;20439;-58
2023/10/16 10:35:40;;;;;;;0.80;0.40;;;;;;;-143.84;43.52;45132.84;5093712;28;20437;-58
2023/10/16 10:38:20;;;;;;;0.80;0.43;;;;;;;-143.84;43.13;45132.84;5093597;28;20813;-58
2023/10/16 10:41:15;;;;;;;1.40;0.80;;;;;;;-143.84;42.21;45134.75;5093422;28;20969;-58
2023/10/16 10:43:48;;;;;;;0.90;0.60;;;;;;;-143.84;41.57;45123.34;5093313;28;20526;-58
2023/10/16 10:46:25;;;;;;;0.80;0.50;;;;;;;-143.84;41.42;45106.19;5093278;28;20535;-58
2023/10/16 10:48:54;;;;;;;0.80;0.40;;;;;;;-143.84;40.65;45108.09;5093410;28;20526;-58
2023/10/16 10:51:34;;;;;;;0.80;0.40;;;;;;;-143.84;40.54;45129.03;5093124;28;20440;-58
2023/10/16 10:54:03;;;;;;;0.80;0.40;;;;;;;-143.84;40.58;45106.19;5092628;28;20457;-58
2023/10/16 10:56:41;;;;;;;0.80;0.40;;;;;;;-143.84;40.27;45123.34;5092909;28;20447;-58
2023/10/16 10:59:10;;;;;;;0.80;0.40;;;;;;;-143.84;40.27;45096.66;5093042;28;20444;-58
2023/10/16 11:01:50;;;;;;;0.80;0.40;;;;;;;-143.84;40.43;45110.00;5093059;28;20473;-58
2023/10/16 11:04:17;;;;;;;0.80;0.40;;;;;;;-143.84;39.58;45110.00;5092956;28;20527;-58
2023/10/16 11:06:49;;;;;;;0.80;0.40;;;;;;;-143.84;39.91;45094.78;5093068;28;20468;-58
2023/10/16 11:09:20;;;;;;;0.80;0.50;;;;;;;-143.84;40.14;45104.28;5093001;28;20940;-58
2023/10/16 11:11:50;;;;;;;0.80;0.40;;;;;;;-143.84;40.34;45111.91;5092845;28;20474;-58
2023/10/16 11:14:19;;;;;;;0.80;0.40;;;;;;;-143.84;39.38;45121.44;5092778;28;20512;-58
2023/10/16 11:16:48;;;;;;;0.80;0.40;;;;;;;-143.84;38.59;45068.13;5092847;28;20446;-58
2023/10/16 11:19:27;;;;;;;0.80;0.40;;;;;;;-143.84;39.21;45129.03;5091861;28;20443;-58
2023/10/16 11:21:56;;;;;;;0.80;0.40;;;;;;;-143.84;39.06;45104.28;5091548;28;20586;-58
2023/10/16 11:24:24;;;;;;;0.80;0.47;;;;;;;-143.84;39.16;45104.28;5092102;28;20472;-58
2023/10/16 11:26:54;;;;;;;0.80;0.40;;;;;;;-143.84;39.12;45129.03;5092268;28;20517;-58
2023/10/16 11:29:21;;;;;;;0.80;0.40;;;;;;;-143.84;38.38;45106.19;5092258;28;20448;-58
2023/10/16 11:31:52;;;;;;;0.80;0.50;;;;;;;-143.84;38.35;45106.19;5091933;28;20443;-58
2023/10/16 11:34:24;;;;;;;0.90;0.40;;;;;;;-143.84;38.15;45079.53;5092336;28;20480;-58
2023/10/16 11:36:52;;;;;;;1.10;0.40;;;;;;;-143.84;37.35;45100.47;5092269;28;20444;-58
2023/10/16 11:39:20;;;;;;;0.80;0.50;;;;;;;-143.84;37.24;45096.66;5092427;28;20458;-58
2023/10/16 11:41:48;;;;;;;0.80;0.40;;;;;;;-143.84;36.53;45106.19;5092131;28;20504;-58
2023/10/16 11:44:16;;;;;;;0.80;0.40;;;;;;;-143.84;37.22;45130.94;5092195;28;20515;-59
2023/10/16 11:46:46;;;;;;;0.80;0.30;;;;;;;-143.84;37.03;45104.28;5092085;28;20446;-58
2023/10/16 11:49:22;;;;;;;0.80;0.40;;;;;;;-143.84;36.86;45098.56;5092298;28;20458;-58
2023/10/16 11:51:51;;;;;;;0.80;0.40;;;;;;;-143.84;37.90;45117.63;5092015;28;20450;-58
2023/10/16 11:54:20;;;;;;;0.80;0.40;;;;;;;-143.84;37.72;45106.19;5091917;28;21184;-58
2023/10/16 11:56:48;;;;;;;0.80;0.50;;;;;;;-143.84;37.20;45129.03;5091631;28;20443;-58
2023/10/16 11:59:19;;;;;;;1.33;0.70;;;;;;;-143.84;38.18;45117.63;5091438;28;20536;-58
2023/10/16 12:01:46;;;;;;;1.30;0.80;;;;;;;-143.84;38.71;45102.38;5091681;28;20440;-58
2023/10/16 12:04:17;;;;;;;0.87;0.53;;;;;;;-143.84;38.41;45100.47;5091608;28;20475;-58
2023/10/16 12:06:45;;;;;;;0.80;0.40;;;;;;;-143.84;38.15;45104.28;5091815;28;20455;-58
2023/10/16 12:09:19;;;;;;;0.80;0.40;;;;;;;-143.84;37.70;45073.81;5091735;28;20934;-58
2023/10/16 12:11:47;;;;;;;0.80;0.40;;;;;;;-143.84;37.93;45098.56;5091422;28;20453;-58
2023/10/16 12:14:14;;;;;;;0.80;0.50;;;;;;;-143.84;36.92;45094.78;5090934;28;20440;-58
2023/10/16 12:16:44;;;;;;;0.80;0.40;;;;;;;-143.84;36.36;45127.13;5091180;28;20481;-58
2023/10/16 12:19:12;;;;;;;0.80;0.40;;;;;;;-143.84;36.99;45100.47;5090804;28;20451;-58
2023/10/16 12:21:41;;;;;;;0.80;0.40;;;;;;;-143.84;36.50;45102.38;5090614;28;20508;-59
2023/10/16 12:24:10;;;;;;;1.10;0.50;;;;;;;-143.84;37.44;45111.91;5091337;28;20448;-57
2023/10/16 12:26:40;;;;;;;0.90;0.70;;;;;;;-143.84;36.07;45113.81;5091534;28;20438;-58
2023/10/16 12:29:08;;;;;;;0.80;0.40;;;;;;;-143.84;36.58;45092.88;5091373;28;20543;-58
2023/10/16 12:31:35;;;;;;;0.90;0.40;;;;;;;-143.84;37.21;45100.47;5091209;28;20497;-63
2023/10/16 12:34:03;;;;;;;0.80;0.43;;;;;;;-143.84;36.96;45104.28;5090713;28;20435;-63
2023/10/16 12:36:32;;;;;;;0.80;0.40;;;;;;;-143.84;36.45;45113.81;5091254;28;20440;-63
2023/10/16 12:39:13;;;;;;;0.80;0.40;;;;;;;-143.84;37.33;45115.72;5091314;28;20835;-63
2023/10/16 12:41:41;;;;;;;0.80;0.40;;;;;;;-143.84;37.10;45115.72;5091556;28;20813;-58